Aeroporto :
LOGIN :

Iscrizione | Disclaimer

   EN    FR    IT 

 










Sommario :    VFR   VFR Marginale   IFR   IFR Intensivo   IFR Molto Intensivo
Visibilità : 
Base nubi : 
>= 8 km
>= 3000ft
5 / 8 km
1000 / 3000 ft
1500m / 5 km
500 / 1000 ft
800 / 1500m
200 / 500 ft
< 800m
< 200 ft
Simboli :   Temporali  Nebbia  Neve Forte  Precipitazioni Forti  Vento > 20 kt
SIGMETs :   Varie  Temporali  Ghiacco  Turbolenza  Onda orograficha  Ceneri Vulcaniche






- Altitudine del aeroporto : 55 ft
- Codice IATA : DSA


EGCN - Robin Hood Doncaster Sheffield

ULTIMO METAR :
  • 171720Z 36008KT 9999 SCT037 07/06 Q1016

METARs OBSOLETI :
  • 171650Z 36009KT 9999 FEW018 SCT035 BKN041 08/07 Q1015
  • 171620Z 36012KT 9999 -RA SCT016 BKN031 08/07 Q1015
  • 171550Z 36009KT 9999 FEW021 BKN033 08/07 Q1015
  • 171520Z 01008KT 9999 FEW020 BKN031 08/07 Q1014
  • 171450Z 36009KT 9999 FEW024 BKN031 08/07 Q1014

TAF TAF EGCN
Valido dal 17 a 18 ore il 18 a 18 ore UTC


171700Z 1718/1818 36008KT 9999 SCT030
PROB30
TEMPO 1718/1724 6000 -RA



MetMap, La meteo Aeronautica in un colpo d'occhio ! - Copyright ORBIFLY Dicembre 2007 - Disclaimer

ORBIFLY MET'MAP TEAM :

Programmazione e sviluppo : Alexandra Zaïnal
Concezione e sviluppo : Baudouin d'Aumeries
Co-Programmazione e sviluppo : Marc-Olivier Méhu
Supporto tecnico e logistico : Manuel Goepfert
Aiuto per la traduzione : Arnaldo La Scala

Contatto : metmap@orbifly.com




FONTI E CREDITI :

   NOAA